Werte bis 5 Uhr SommerzeitDiagramme Gross Umstadt: Tagesdaten Monatsdaten WindroseCSV-Datei: Gross Umstadt21.csv

Wetterdaten 2021 Station: Gross Umstadt
Temperaturen in °C relative Nieder- Global- Wind Wind Wind- Sonnen-
Datum Boden Boden Luft Luft Luft Luft Feuchte schlag strahlung max richtung schein
20 cm 5 cm 20 cm 2 m 2 m max 2 m min % mm W/m2*d m/s m/s ° h

06.05.2021 10,1 8,3 4,0 4,7 5,1 4,3 89 0,0 0 1,1 3,0 --- ---
05.05.2021 10,2 9,0 8,1 7,6 11,0 4,5 76 4,8 4343 3,8 17,0 --- 9,1
04.05.2021 10,6 9,3 9,8 10,2 12,5 6,0 64 5,1 1242 4,2 15,9 --- 4,8
03.05.2021 10,7 9,9 8,2 7,8 14,5 -0,1 62 0,0 5332 1,6 8,4 --- 10,8
02.05.2021 11,1 10,6 10,4 9,1 12,6 2,9 56 0,1 5092 2,9 10,6 --- 10,2
01.05.2021 10,8 10,3 10,9 10,1 14,8 4,8 66 0,0 3318 1,1 7,2 --- 10,5
30.04.2021 11,1 9,7 7,2 6,8 11,2 0,6 73 0,0 2351 0,9 4,5 --- 8,7
29.04.2021 11,9 11,9 12,3 11,6 15,9 5,7 74 3,8 4119 2,7 14,3 --- 10,4
28.04.2021 11,0 11,2 12,3 12,1 22,9 1,0 56 0,3 5898 1,2 9,9 --- 8,9
27.04.2021 10,6 10,3 9,7 10,6 19,0 2,4 41 0,0 6965 0,7 8,5 --- 11,3
26.04.2021 10,3 9,8 8,5 9,0 16,7 0,7 44 0,0 7087 1,2 7,1 --- 10,2
25.04.2021 10,4 10,1 8,1 8,1 14,8 0,7 60 0,0 6941 1,7 8,6 --- 8,9
24.04.2021 10,2 9,9 8,8 8,8 16,8 -0,6 60 0,0 6627 1,6 6,9 --- 9,1
23.04.2021 10,0 9,6 7,7 7,9 16,1 -0,5 58 0,0 6847 1,1 7,2 --- 9,1
22.04.2021 10,2 10,1 8,8 8,6 14,4 3,5 58 0,0 6566 1,9 8,0 --- 9,1
21.04.2021 9,9 10,2 10,3 10,6 19,3 2,5 72 0,4 5088 1,2 9,6 --- 8,3
20.04.2021 9,1 9,3 9,7 9,2 18,2 1,0 77 0,0 6058 1,0 5,1 --- 9,1
19.04.2021 8,7 8,6 9,1 8,8 12,9 3,6 90 2,1 1783 0,7 3,7 --- 5,0
18.04.2021 8,1 7,8 8,2 7,8 12,4 3,6 78 0,3 2309 0,7 7,1 --- 7,0
17.04.2021 7,6 7,2 6,4 6,2 11,4 0,7 68 0,0 4319 1,5 8,7 --- 7,7
16.04.2021 7,3 6,1 4,5 4,4 8,0 0,1 73 0,0 2259 0,9 7,0 --- 7,6
15.04.2021 7,4 6,1 3,2 3,1 10,4 -3,3 71 0,1 4248 1,3 9,0 --- 7,3
14.04.2021 7,6 6,5 3,2 3,1 10,0 -2,9 71 0,0 4411 1,2 7,6 --- 8,6
13.04.2021 7,7 6,6 3,7 3,4 9,6 -2,9 72 0,0 5098 1,3 6,8 --- 8,6
12.04.2021 8,4 7,4 5,2 4,0 8,9 -1,1 82 0,1 3588 2,0 9,8 --- 7,7
11.04.2021 8,5 8,5 9,5 9,5 17,2 3,4 82 7,0 2241 2,2 8,5 --- 5,2
10.04.2021 7,8 7,8 10,6 10,9 12,7 8,8 74 1,2 1510 1,8 7,8 --- 4,3
09.04.2021 6,5 5,9 8,6 8,3 16,3 -1,1 54 0,0 4794 2,0 10,5 --- 8,2
08.04.2021 6,0 4,6 4,4 3,5 9,1 -0,6 62 0,0 3820 2,0 8,2 --- 8,8
07.04.2021 6,4 4,1 1,8 1,8 3,9 -0,1 76 0,1 1083 4,3 12,5 --- 2,8
06.04.2021 7,0 4,8 3,1 2,0 6,7 -1,3 70 0,0 3624 4,0 13,3 --- 6,6
05.04.2021 8,4 6,2 3,2 3,4 7,3 -1,5 77 2,2 1054 3,7 14,1 --- 2,1
04.04.2021 9,0 7,8 5,9 5,3 12,2 -1,6 67 0,0 4232 1,2 6,1 --- 8,3
03.04.2021 9,6 8,8 7,0 6,9 12,3 1,9 57 0,0 5044 2,0 9,2 --- 7,7
02.04.2021 10,4 9,5 7,9 7,7 12,5 2,0 67 0,0 3304 2,3 9,4 --- 7,5
01.04.2021 10,5 11,1 15,5 15,4 24,2 6,1 54 0,0 4655 1,8 7,8 --- 8,2
31.03.2021 9,7 10,4 14,2 14,8 26,1 4,5 52 0,0 5253 0,8 4,5 --- 8,3
30.03.2021 9,1 9,6 12,7 13,6 24,6 3,8 51 0,0 5360 1,0 5,0 --- 8,3
29.03.2021 8,3 8,6 13,1 12,8 20,8 5,9 52 0,0 5166 2,1 8,2 --- 8,3
28.03.2021 7,7 7,4 10,5 9,9 15,2 4,8 62 0,0 4212 2,4 10,4 --- 7,5
27.03.2021 8,0 7,4 8,2 7,9 11,8 4,4 70 0,7 3330 5,0 16,7 --- 7,0
26.03.2021 7,5 7,8 10,9 11,0 17,1 5,0 66 0,0 4420 1,7 5,7 --- 7,9
25.03.2021 6,8 6,7 9,0 8,6 16,1 0,2 68 0,0 3947 1,8 7,9 --- 8,1
24.03.2021 6,1 5,8 7,4 7,0 15,9 -1,0 72 0,0 4846 1,1 4,6 --- 8,2
23.03.2021 5,8 5,2 6,1 5,7 8,9 2,1 79 0,0 1726 1,1 4,8 --- 4,9
22.03.2021 5,4 4,6 5,3 5,1 7,5 3,2 77 0,0 1654 2,0 7,5 --- 4,9
21.03.2021 5,2 4,2 5,2 5,0 9,6 1,8 68 0,1 1936 2,9 11,1 --- 5,3
20.03.2021 4,9 3,7 1,6 1,3 5,7 -3,0 68 0,0 4300 0,9 4,9 --- 7,8
19.03.2021 5,2 4,1 2,3 2,4 6,5 -0,9 83 1,1 2367 1,9 10,7 --- 6,2
18.03.2021 5,2 3,8 2,3 1,8 7,4 -2,6 85 0,6 2400 0,7 6,5 --- 6,0
17.03.2021 5,6 4,5 3,0 3,2 5,8 -0,9 86 1,7 1535 1,0 6,6 --- 4,5
16.03.2021 5,7 4,6 5,2 5,0 8,1 3,3 81 0,0 1622 3,1 8,0 --- 4,8
15.03.2021 5,7 4,7 5,4 5,1 9,0 2,9 85 2,6 1970 3,6 11,8 --- 4,7
14.03.2021 5,7 4,8 5,2 4,6 7,3 2,8 85 1,8 2867 3,9 11,7 --- 6,5
13.03.2021 5,8 5,0 6,2 6,5 8,6 4,4 83 8,5 1305 5,8 17,8 --- 2,9
12.03.2021 5,9 5,1 6,7 6,8 10,5 3,8 72 3,9 1992 5,4 19,0 --- 5,6
11.03.2021 5,5 5,4 8,9 9,2 13,8 6,3 75 3,3 1207 5,2 19,0 --- 2,7
10.03.2021 4,7 4,2 6,2 6,0 9,7 2,8 79 0,0 1920 1,9 6,4 --- 5,7
09.03.2021 4,1 3,0 3,5 3,0 7,4 -1,7 82 0,3 2081 1,4 5,9 --- 5,6
08.03.2021 4,0 2,3 0,3 0,7 5,8 -4,7 81 0,0 2457 0,9 4,6 --- 6,6
07.03.2021 4,3 2,6 0,7 1,0 9,4 -5,9 65 0,0 4007 0,8 4,1 --- 7,5
06.03.2021 5,0 2,9 -0,2 0,4 8,1 -6,1 69 0,0 3971 0,8 5,3 --- 7,4
05.03.2021 6,2 5,1 2,7 3,0 5,8 -2,7 83 2,1 1289 2,1 7,8 --- 4,0
04.03.2021 6,0 5,9 8,9 8,8 13,9 5,3 77 0,6 2331 2,0 9,5 --- 4,8
03.03.2021 5,4 4,6 5,7 6,3 15,0 -0,3 80 0,0 2310 0,7 3,1 --- 5,6
02.03.2021 5,1 4,3 5,8 6,6 15,7 -0,6 75 0,0 3417 0,8 3,8 --- 7,1
01.03.2021 5,1 3,9 3,4 4,5 14,5 -2,8 76 0,0 3414 0,8 5,0 --- 7,1
28.02.2021 5,5 4,2 3,6 4,4 11,7 -1,3 74 0,0 3384 1,0 5,0 --- 7,1
27.02.2021 5,9 4,8 3,3 3,6 8,5 -0,6 88 0,1 3243 1,5 7,0 --- 6,5
26.02.2021 6,8 5,8 4,8 5,5 10,4 1,0 88 0,0 723 1,4 8,2 --- 1,4
25.02.2021 6,9 7,1 11,1 11,6 18,8 4,3 67 0,0 3019 1,3 6,2 --- 6,8
24.02.2021 6,3 6,8 11,7 12,5 19,7 6,6 74 0,0 2646 1,4 5,4 --- 6,5
23.02.2021 5,4 5,2 8,7 9,4 19,9 1,5 81 0,0 2527 1,2 6,0 --- 6,4
22.02.2021 5,4 4,8 5,8 6,4 10,3 2,4 84 0,0 2431 1,4 4,2 --- 6,1
21.02.2021 5,3 5,2 8,2 9,4 18,3 0,7 74 0,0 2843 1,2 4,1 --- 6,4
20.02.2021 4,6 4,9 9,4 10,0 17,4 4,0 77 0,0 2492 1,4 5,8 --- 6,0
19.02.2021 3,9 3,9 6,5 7,1 12,3 1,5 83 0,4 2225 1,7 8,6 --- 5,4
18.02.2021 2,7 2,4 6,4 7,0 12,1 1,6 80 0,2 1580 1,5 10,4 --- 4,8
17.02.2021 1,4 0,3 7,0 7,6 10,4 3,1 85 1,8 1291 2,9 9,5 --- 4,3
16.02.2021 1,2 -0,7 4,5 5,1 10,3 2,2 87 0,0 1379 1,2 4,0 --- 5,0
15.02.2021 1,3 -0,7 -1,2 -0,7 2,8 -4,9 69 1,3 856 1,3 5,1 --- 2,1
14.02.2021 1,4 -0,7 -5,8 -4,9 1,1 -11,1 74 0,0 2659 1,5 6,0 --- 5,9
13.02.2021 1,7 -0,5 -6,6 -5,9 -0,9 -11,2 73 0,0 2527 1,3 5,5 --- 5,7
12.02.2021 2,0 -0,3 -6,7 -6,2 -1,9 -11,2 78 0,0 2492 1,3 5,6 --- 5,5
11.02.2021 2,3 -0,1 -6,5 -6,6 -1,1 -12,0 86 1,2 2011 0,7 3,2 --- 5,1
10.02.2021 3,0 0,5 -8,6 -8,6 -4,9 -11,5 82 0,0 1180 2,0 6,4 --- 4,5
09.02.2021 3,7 1,4 -7,4 -7,6 -6,1 -10,2 85 0,0 695 1,8 4,4 --- 1,3
08.02.2021 4,5 2,3 -3,9 -4,2 -2,3 -6,5 97 0,0 610 1,7 4,6 --- 0,5
07.02.2021 5,5 4,1 2,5 2,4 4,3 -2,3 97 3,1 279 1,9 7,8 --- ---
06.02.2021 5,8 5,0 5,1 5,2 6,1 4,2 97 8,2 216 1,0 4,9 --- ---
05.02.2021 5,8 4,9 5,5 5,7 7,6 3,6 96 3,0 501 0,6 2,5 --- ---
04.02.2021 6,3 5,8 6,9 7,3 9,7 3,7 83 0,8 1697 3,0 15,7 --- 4,6
03.02.2021 5,7 6,2 9,7 10,3 11,8 9,1 91 13,0 308 3,7 15,6 --- 0,1
02.02.2021 4,4 4,1 7,0 7,3 10,8 4,3 95 3,0 626 2,1 8,7 --- 1,1
01.02.2021 3,8 2,7 3,0 3,0 4,9 1,2 98 2,4 549 1,4 5,9 --- 0,5
31.01.2021 4,2 2,6 0,6 0,6 1,4 -0,4 93 2,1 428 0,9 3,7 --- ---
30.01.2021 5,0 4,3 3,8 4,1 7,8 0,0 94 4,9 381 2,8 11,3 --- 0,4
29.01.2021 4,5 4,9 8,5 9,0 10,5 6,9 87 4,2 508 4,6 15,1 --- 0,8
28.01.2021 2,8 2,4 5,6 5,9 10,9 1,6 97 14,5 164 3,1 12,4 --- ---
27.01.2021 2,5 0,9 0,6 0,8 1,8 -0,4 94 0,3 442 2,2 6,8 --- 0,5
26.01.2021 2,8 1,1 0,9 1,3 3,1 -0,8 88 0,5 221 3,5 10,2 --- ---
25.01.2021 3,0 1,4 0,4 0,3 2,1 -0,8 94 0,4 531 0,9 3,5 --- 1,1
24.01.2021 3,5 2,0 1,1 1,4 3,2 -0,4 91 4,9 364 4,3 13,2 --- 0,4
23.01.2021 4,0 2,8 2,7 3,0 4,9 1,0 94 0,0 440 1,4 6,6 --- 0,3
22.01.2021 4,1 4,1 5,5 5,9 10,5 2,0 89 9,0 304 3,1 11,8 --- ---
21.01.2021 3,0 2,9 7,5 8,1 11,1 4,9 75 2,1 319 3,7 14,3 --- 0,2
20.01.2021 2,1 1,2 4,6 5,6 9,3 2,7 68 0,0 738 2,0 5,8 --- 2,5
19.01.2021 1,8 0,7 2,0 2,5 3,5 1,2 87 2,3 295 3,8 12,3 --- ---
18.01.2021 1,5 0,1 2,2 2,5 4,2 1,5 91 0,0 650 2,8 8,6 --- 1,8
17.01.2021 1,5 -0,3 -0,8 -1,0 1,6 -2,7 97 2,0 354 0,7 3,6 --- ---
16.01.2021 1,5 -0,3 -1,3 -1,4 -0,5 -2,6 85 0,0 294 1,1 5,0 --- ---
15.01.2021 1,7 -0,3 -2,4 -1,7 0,2 -4,5 91 0,0 722 0,7 4,3 --- 3,0
14.01.2021 1,8 0,1 0,1 0,7 2,5 -1,7 83 0,0 626 1,3 9,0 --- 1,2
13.01.2021 1,7 -0,2 0,4 1,0 3,1 -1,1 89 0,0 762 2,8 8,7 --- 2,4
12.01.2021 1,9 -0,2 0,6 1,1 2,7 -0,1 94 1,2 271 3,8 10,3 --- ---
11.01.2021 2,2 -0,2 -2,8 -2,3 1,7 -6,1 88 0,1 986 1,3 6,5 --- 3,5
10.01.2021 2,7 0,3 -3,1 -2,3 2,2 -4,8 94 0,0 932 0,4 2,1 --- 2,4
09.01.2021 3,3 1,5 -0,3 0,1 2,2 -2,9 93 0,0 662 0,8 5,5 --- 1,6
08.01.2021 3,4 1,6 0,7 0,8 1,6 0,1 98 0,5 462 2,6 7,3 --- 0,8
07.01.2021 3,7 2,0 1,1 1,2 2,1 0,4 93 0,2 347 1,7 5,8 --- ---
06.01.2021 3,7 2,2 1,4 1,5 2,7 0,4 98 0,0 247 1,2 4,6 --- ---
05.01.2021 3,7 2,1 1,3 1,3 2,7 0,6 97 0,3 243 1,1 4,0 --- ---
04.01.2021 3,8 2,1 0,9 0,9 2,0 0,1 99 0,4 163 0,7 2,9 --- ---
03.01.2021 4,0 2,2 0,6 0,6 1,9 -0,1 96 1,1 253 0,9 4,7 --- ---
02.01.2021 4,2 2,6 1,4 1,5 3,1 0,3 91 0,0 466 0,8 4,9 --- ---
01.01.2021 4,3 2,7 2,0 2,2 3,4 0,9 97 0,1 287 0,7 2,9 --- ---

Mittelwerte (Temperaturen, Strahlung, rel. Feuchte, Wind), Summe (Regen) für 2021
5,8 4,8 4,7 4,8 78 145 2.371 1,9

Landesbetrieb Landwirtschaft Hessen 2009

      Werte bis 5 Uhr SommerzeitCSV-Datei: Gross Umstadt21.csvDiagramm: Gross Umstadt